sensor_id;sensor_type;location;lat;lon;timestamp;temperature;humidity
70986;DHT22;58645;43.068;25.610;2022-12-18T00:01:53;10.10;99.90
70986;DHT22;58645;43.068;25.610;2022-12-18T00:04:23;10.10;99.90
70986;DHT22;58645;43.068;25.610;2022-12-18T00:06:49;10.10;99.90
70986;DHT22;58645;43.068;25.610;2022-12-18T00:09:15;10.10;99.90
70986;DHT22;58645;43.068;25.610;2022-12-18T00:11:41;10.10;99.90
70986;DHT22;58645;43.068;25.610;2022-12-18T00:14:08;10.10;99.90
70986;DHT22;58645;43.068;25.610;2022-12-18T00:16:34;10.10;99.90
70986;DHT22;58645;43.068;25.610;2022-12-18T00:19:02;10.10;99.90
70986;DHT22;58645;43.068;25.610;2022-12-18T00:21:30;10.10;99.90
70986;DHT22;58645;43.068;25.610;2022-12-18T00:23:57;10.10;99.90
70986;DHT22;58645;43.068;25.610;2022-12-18T00:26:25;10.20;99.90
70986;DHT22;58645;43.068;25.610;2022-12-18T00:28:52;10.20;99.90
70986;DHT22;58645;43.068;25.610;2022-12-18T00:31:20;10.10;99.90
70986;DHT22;58645;43.068;25.610;2022-12-18T00:33:47;10.10;99.90
70986;DHT22;58645;43.068;25.610;2022-12-18T00:36:18;10.10;99.90
70986;DHT22;58645;43.068;25.610;2022-12-18T00:38:45;10.00;99.90
70986;DHT22;58645;43.068;25.610;2022-12-18T00:41:11;10.00;99.90
70986;DHT22;58645;43.068;25.610;2022-12-18T00:43:38;10.00;99.90
70986;DHT22;58645;43.068;25.610;2022-12-18T00:46:04;10.00;99.90
70986;DHT22;58645;43.068;25.610;2022-12-18T00:48:30;9.90;99.90
70986;DHT22;58645;43.068;25.610;2022-12-18T00:50:56;10.00;99.90
70986;DHT22;58645;43.068;25.610;2022-12-18T00:53:21;10.00;99.90
70986;DHT22;58645;43.068;25.610;2022-12-18T00:55:47;10.00;99.90
70986;DHT22;58645;43.068;25.610;2022-12-18T00:58:15;10.00;99.90
70986;DHT22;58645;43.068;25.610;2022-12-18T01:00:41;10.00;99.90
70986;DHT22;58645;43.068;25.610;2022-12-18T01:03:07;10.00;99.90
70986;DHT22;58645;43.068;25.610;2022-12-18T01:05:33;9.90;99.90
70986;DHT22;58645;43.068;25.610;2022-12-18T01:07:59;9.90;99.90
70986;DHT22;58645;43.068;25.610;2022-12-18T01:10:25;10.00;99.90
70986;DHT22;58645;43.068;25.610;2022-12-18T01:12:51;10.00;99.90
70986;DHT22;58645;43.068;25.610;2022-12-18T01:15:18;10.00;99.90
70986;DHT22;58645;43.068;25.610;2022-12-18T01:17:44;10.00;99.90
70986;DHT22;58645;43.068;25.610;2022-12-18T01:20:11;10.00;99.90
70986;DHT22;58645;43.068;25.610;2022-12-18T01:22:37;10.00;99.90
70986;DHT22;58645;43.068;25.610;2022-12-18T01:25:04;10.00;99.90
70986;DHT22;58645;43.068;25.610;2022-12-18T01:27:30;10.00;99.90
70986;DHT22;58645;43.068;25.610;2022-12-18T01:29:56;10.00;99.90
70986;DHT22;58645;43.068;25.610;2022-12-18T01:32:22;9.90;99.90
70986;DHT22;58645;43.068;25.610;2022-12-18T01:34:47;9.90;99.90
70986;DHT22;58645;43.068;25.610;2022-12-18T01:37:13;9.90;99.90
70986;DHT22;58645;43.068;25.610;2022-12-18T01:39:39;10.00;99.90
70986;DHT22;58645;43.068;25.610;2022-12-18T01:42:15;10.00;99.90
70986;DHT22;58645;43.068;25.610;2022-12-18T01:53:20;10.10;99.90
70986;DHT22;58645;43.068;25.610;2022-12-18T01:55:51;10.00;99.90
70986;DHT22;58645;43.068;25.610;2022-12-18T01:58:20;10.00;99.90
70986;DHT22;58645;43.068;25.610;2022-12-18T02:00:47;10.00;99.90
70986;DHT22;58645;43.068;25.610;2022-12-18T02:03:12;10.00;99.90
70986;DHT22;58645;43.068;25.610;2022-12-18T02:05:49;10.00;99.90
70986;DHT22;58645;43.068;25.610;2022-12-18T02:08:36;10.00;99.90
70986;DHT22;58645;43.068;25.610;2022-12-18T02:11:08;10.10;99.90
70986;DHT22;58645;43.068;25.610;2022-12-18T02:13:44;10.00;99.90
70986;DHT22;58645;43.068;25.610;2022-12-18T02:16:58;10.00;99.90
70986;DHT22;58645;43.068;25.610;2022-12-18T02:27:59;9.80;99.90
70986;DHT22;58645;43.068;25.610;2022-12-18T02:30:27;9.90;99.90
70986;DHT22;58645;43.068;25.610;2022-12-18T02:32:56;9.90;99.90
70986;DHT22;58645;43.068;25.610;2022-12-18T02:35:24;9.80;99.90
70986;DHT22;58645;43.068;25.610;2022-12-18T02:37:55;9.80;99.90
70986;DHT22;58645;43.068;25.610;2022-12-18T02:40:24;9.80;99.90
70986;DHT22;58645;43.068;25.610;2022-12-18T02:42:50;9.80;99.90
70986;DHT22;58645;43.068;25.610;2022-12-18T02:45:16;9.70;99.90
70986;DHT22;58645;43.068;25.610;2022-12-18T02:47:44;9.70;99.90
70986;DHT22;58645;43.068;25.610;2022-12-18T03:01:07;9.30;99.90
70986;DHT22;58645;43.068;25.610;2022-12-18T03:03:43;9.20;99.90
70986;DHT22;58645;43.068;25.610;2022-12-18T03:06:26;9.10;99.90
70986;DHT22;58645;43.068;25.610;2022-12-18T03:08:58;9.00;99.90
70986;DHT22;58645;43.068;25.610;2022-12-18T03:11:26;8.90;99.90
70986;DHT22;58645;43.068;25.610;2022-12-18T03:14:13;8.80;99.90
70986;DHT22;58645;43.068;25.610;2022-12-18T03:16:42;8.70;99.90
70986;DHT22;58645;43.068;25.610;2022-12-18T03:19:16;8.70;99.90
70986;DHT22;58645;43.068;25.610;2022-12-18T03:21:46;8.60;99.90
70986;DHT22;58645;43.068;25.610;2022-12-18T03:24:14;8.60;99.90
70986;DHT22;58645;43.068;25.610;2022-12-18T03:26:44;8.50;99.90
70986;DHT22;58645;43.068;25.610;2022-12-18T03:29:21;8.50;99.90
70986;DHT22;58645;43.068;25.610;2022-12-18T03:31:53;8.40;99.90
70986;DHT22;58645;43.068;25.610;2022-12-18T03:34:23;8.50;99.90
70986;DHT22;58645;43.068;25.610;2022-12-18T03:36:50;8.40;99.90
70986;DHT22;58645;43.068;25.610;2022-12-18T03:39:16;8.40;99.90
70986;DHT22;58645;43.068;25.610;2022-12-18T03:42:23;8.40;99.90
70986;DHT22;58645;43.068;25.610;2022-12-18T03:52:36;8.30;99.90
70986;DHT22;58645;43.068;25.610;2022-12-18T03:55:03;8.20;99.90
70986;DHT22;58645;43.068;25.610;2022-12-18T03:57:31;8.20;99.90
70986;DHT22;58645;43.068;25.610;2022-12-18T04:00:03;8.20;99.90
70986;DHT22;58645;43.068;25.610;2022-12-18T04:02:30;8.20;99.90
70986;DHT22;58645;43.068;25.610;2022-12-18T04:04:59;8.20;99.90
70986;DHT22;58645;43.068;25.610;2022-12-18T04:07:27;8.10;99.90
70986;DHT22;58645;43.068;25.610;2022-12-18T04:09:55;8.10;99.90
70986;DHT22;58645;43.068;25.610;2022-12-18T04:12:24;8.10;99.90
70986;DHT22;58645;43.068;25.610;2022-12-18T04:14:51;8.00;99.90
70986;DHT22;58645;43.068;25.610;2022-12-18T04:17:17;7.90;99.90
70986;DHT22;58645;43.068;25.610;2022-12-18T04:19:43;7.90;99.90
70986;DHT22;58645;43.068;25.610;2022-12-18T04:22:12;7.80;99.90
70986;DHT22;58645;43.068;25.610;2022-12-18T04:24:38;7.80;99.90
70986;DHT22;58645;43.068;25.610;2022-12-18T04:27:04;7.70;99.90
70986;DHT22;58645;43.068;25.610;2022-12-18T04:29:30;7.70;99.90
70986;DHT22;58645;43.068;25.610;2022-12-18T04:31:55;7.70;99.90
70986;DHT22;58645;43.068;25.610;2022-12-18T04:34:21;7.70;99.90
70986;DHT22;58645;43.068;25.610;2022-12-18T04:36:47;7.70;99.90
70986;DHT22;58645;43.068;25.610;2022-12-18T04:39:13;7.70;99.90
70986;DHT22;58645;43.068;25.610;2022-12-18T04:41:39;7.80;99.90
70986;DHT22;58645;43.068;25.610;2022-12-18T04:44:05;7.80;99.90
70986;DHT22;58645;43.068;25.610;2022-12-18T04:46:31;7.80;99.90
70986;DHT22;58645;43.068;25.610;2022-12-18T04:48:56;7.80;99.90
70986;DHT22;58645;43.068;25.610;2022-12-18T04:51:22;7.80;99.90
70986;DHT22;58645;43.068;25.610;2022-12-18T04:53:48;7.90;99.90
70986;DHT22;58645;43.068;25.610;2022-12-18T04:56:15;7.90;99.90
70986;DHT22;58645;43.068;25.610;2022-12-18T04:58:42;7.90;99.90
70986;DHT22;58645;43.068;25.610;2022-12-18T05:01:09;7.90;99.90
70986;DHT22;58645;43.068;25.610;2022-12-18T05:03:36;7.90;99.90
70986;DHT22;58645;43.068;25.610;2022-12-18T05:06:02;7.90;99.90
70986;DHT22;58645;43.068;25.610;2022-12-18T05:08:28;7.90;99.90
70986;DHT22;58645;43.068;25.610;2022-12-18T05:11:04;7.90;99.90
70986;DHT22;58645;43.068;25.610;2022-12-18T05:13:30;7.80;99.90
70986;DHT22;58645;43.068;25.610;2022-12-18T05:15:56;7.80;99.90
70986;DHT22;58645;43.068;25.610;2022-12-18T05:18:23;7.90;99.90
70986;DHT22;58645;43.068;25.610;2022-12-18T05:20:50;7.80;99.90
70986;DHT22;58645;43.068;25.610;2022-12-18T05:23:16;7.80;99.90
70986;DHT22;58645;43.068;25.610;2022-12-18T05:25:41;7.80;99.90
70986;DHT22;58645;43.068;25.610;2022-12-18T05:28:07;7.80;99.90
70986;DHT22;58645;43.068;25.610;2022-12-18T05:30:33;7.80;99.90
70986;DHT22;58645;43.068;25.610;2022-12-18T05:32:59;7.80;99.90
70986;DHT22;58645;43.068;25.610;2022-12-18T05:35:25;7.90;99.90
70986;DHT22;58645;43.068;25.610;2022-12-18T05:37:51;7.80;99.90
70986;DHT22;58645;43.068;25.610;2022-12-18T05:40:16;7.80;99.90
70986;DHT22;58645;43.068;25.610;2022-12-18T05:42:42;7.80;99.90
70986;DHT22;58645;43.068;25.610;2022-12-18T05:45:08;7.80;99.90
70986;DHT22;58645;43.068;25.610;2022-12-18T05:47:34;7.80;99.90
70986;DHT22;58645;43.068;25.610;2022-12-18T05:50:00;7.80;99.90
70986;DHT22;58645;43.068;25.610;2022-12-18T05:52:25;7.80;99.90
70986;DHT22;58645;43.068;25.610;2022-12-18T05:54:51;7.80;99.90
70986;DHT22;58645;43.068;25.610;2022-12-18T05:57:17;7.80;99.90
70986;DHT22;58645;43.068;25.610;2022-12-18T05:59:43;7.80;99.90
70986;DHT22;58645;43.068;25.610;2022-12-18T06:02:08;7.80;99.90
70986;DHT22;58645;43.068;25.610;2022-12-18T06:04:34;7.90;99.90
70986;DHT22;58645;43.068;25.610;2022-12-18T06:07:00;7.90;99.90
70986;DHT22;58645;43.068;25.610;2022-12-18T06:09:25;8.00;99.90
70986;DHT22;58645;43.068;25.610;2022-12-18T06:11:52;8.00;99.90
70986;DHT22;58645;43.068;25.610;2022-12-18T06:14:18;8.00;99.90
70986;DHT22;58645;43.068;25.610;2022-12-18T06:16:43;8.00;99.90
70986;DHT22;58645;43.068;25.610;2022-12-18T06:19:14;7.90;99.90
70986;DHT22;58645;43.068;25.610;2022-12-18T06:21:40;7.90;99.90
70986;DHT22;58645;43.068;25.610;2022-12-18T06:24:06;7.90;99.90
70986;DHT22;58645;43.068;25.610;2022-12-18T06:26:33;7.80;99.90
70986;DHT22;58645;43.068;25.610;2022-12-18T06:28:59;7.90;99.90
70986;DHT22;58645;43.068;25.610;2022-12-18T06:31:25;7.90;99.90
70986;DHT22;58645;43.068;25.610;2022-12-18T06:33:52;7.90;99.90
70986;DHT22;58645;43.068;25.610;2022-12-18T06:36:18;7.80;99.90
70986;DHT22;58645;43.068;25.610;2022-12-18T06:38:44;7.90;99.90
70986;DHT22;58645;43.068;25.610;2022-12-18T06:41:16;7.80;99.90
70986;DHT22;58645;43.068;25.610;2022-12-18T06:43:42;7.80;99.90
70986;DHT22;58645;43.068;25.610;2022-12-18T06:46:09;7.90;99.90
70986;DHT22;58645;43.068;25.610;2022-12-18T06:48:35;7.90;99.90
70986;DHT22;58645;43.068;25.610;2022-12-18T06:51:01;7.80;99.90
70986;DHT22;58645;43.068;25.610;2022-12-18T06:53:27;7.80;99.90
70986;DHT22;58645;43.068;25.610;2022-12-18T06:58:27;7.80;99.90
70986;DHT22;58645;43.068;25.610;2022-12-18T07:00:53;7.80;99.90
70986;DHT22;58645;43.068;25.610;2022-12-18T07:03:18;7.90;99.90
70986;DHT22;58645;43.068;25.610;2022-12-18T07:05:44;7.90;99.90
70986;DHT22;58645;43.068;25.610;2022-12-18T07:08:10;7.90;99.90
70986;DHT22;58645;43.068;25.610;2022-12-18T07:10:42;7.90;99.90
70986;DHT22;58645;43.068;25.610;2022-12-18T07:13:08;7.90;99.90
70986;DHT22;58645;43.068;25.610;2022-12-18T07:15:34;7.90;99.90
70986;DHT22;58645;43.068;25.610;2022-12-18T07:18:00;7.90;99.90
70986;DHT22;58645;43.068;25.610;2022-12-18T07:20:25;8.00;99.90
70986;DHT22;58645;43.068;25.610;2022-12-18T07:22:51;8.00;99.90
70986;DHT22;58645;43.068;25.610;2022-12-18T07:25:17;8.00;99.90
70986;DHT22;58645;43.068;25.610;2022-12-18T07:27:42;8.00;99.90
70986;DHT22;58645;43.068;25.610;2022-12-18T07:30:09;8.10;99.90
70986;DHT22;58645;43.068;25.610;2022-12-18T07:32:35;8.10;99.90
70986;DHT22;58645;43.068;25.610;2022-12-18T07:35:00;8.10;99.90
70986;DHT22;58645;43.068;25.610;2022-12-18T07:37:26;8.10;99.90
70986;DHT22;58645;43.068;25.610;2022-12-18T07:39:52;8.20;99.90
70986;DHT22;58645;43.068;25.610;2022-12-18T07:42:18;8.20;99.90
70986;DHT22;58645;43.068;25.610;2022-12-18T07:44:59;8.20;99.90
70986;DHT22;58645;43.068;25.610;2022-12-18T07:47:28;8.20;99.90
70986;DHT22;58645;43.068;25.610;2022-12-18T07:49:54;8.30;99.90
70986;DHT22;58645;43.068;25.610;2022-12-18T07:52:20;8.30;99.90
70986;DHT22;58645;43.068;25.610;2022-12-18T07:54:46;8.30;99.90
70986;DHT22;58645;43.068;25.610;2022-12-18T07:57:14;8.40;99.90
70986;DHT22;58645;43.068;25.610;2022-12-18T07:59:40;8.40;99.90
70986;DHT22;58645;43.068;25.610;2022-12-18T08:02:06;8.50;99.90
70986;DHT22;58645;43.068;25.610;2022-12-18T08:04:32;8.60;99.90
70986;DHT22;58645;43.068;25.610;2022-12-18T08:06:57;8.60;99.90
70986;DHT22;58645;43.068;25.610;2022-12-18T08:09:23;8.60;99.30
70986;DHT22;58645;43.068;25.610;2022-12-18T08:11:49;8.50;96.50
70986;DHT22;58645;43.068;25.610;2022-12-18T08:14:14;8.60;99.30
70986;DHT22;58645;43.068;25.610;2022-12-18T08:16:40;8.60;95.90
70986;DHT22;58645;43.068;25.610;2022-12-18T08:19:06;8.70;97.00
70986;DHT22;58645;43.068;25.610;2022-12-18T08:21:32;8.70;95.80
70986;DHT22;58645;43.068;25.610;2022-12-18T08:23:59;8.70;95.20
70986;DHT22;58645;43.068;25.610;2022-12-18T08:26:28;8.80;95.30
70986;DHT22;58645;43.068;25.610;2022-12-18T08:28:55;8.80;97.40
70986;DHT22;58645;43.068;25.610;2022-12-18T08:31:21;8.80;96.30
70986;DHT22;58645;43.068;25.610;2022-12-18T08:33:52;8.90;93.30
70986;DHT22;58645;43.068;25.610;2022-12-18T08:36:19;8.80;92.90
70986;DHT22;58645;43.068;25.610;2022-12-18T08:38:46;8.90;92.20
70986;DHT22;58645;43.068;25.610;2022-12-18T08:41:12;8.80;92.30
70986;DHT22;58645;43.068;25.610;2022-12-18T08:43:38;8.80;90.80
70986;DHT22;58645;43.068;25.610;2022-12-18T08:46:25;8.80;91.10
70986;DHT22;58645;43.068;25.610;2022-12-18T08:48:52;8.80;90.80
70986;DHT22;58645;43.068;25.610;2022-12-18T08:51:18;8.80;90.00
70986;DHT22;58645;43.068;25.610;2022-12-18T08:53:44;8.80;90.90
70986;DHT22;58645;43.068;25.610;2022-12-18T08:56:11;8.80;88.60
70986;DHT22;58645;43.068;25.610;2022-12-18T08:58:36;8.70;88.40
70986;DHT22;58645;43.068;25.610;2022-12-18T09:01:04;8.70;87.80
70986;DHT22;58645;43.068;25.610;2022-12-18T09:03:30;8.80;87.70
70986;DHT22;58645;43.068;25.610;2022-12-18T09:05:55;8.70;87.80
70986;DHT22;58645;43.068;25.610;2022-12-18T09:08:21;8.80;87.00
70986;DHT22;58645;43.068;25.610;2022-12-18T09:10:49;8.80;87.00
70986;DHT22;58645;43.068;25.610;2022-12-18T09:13:15;8.80;86.20
70986;DHT22;58645;43.068;25.610;2022-12-18T09:15:42;8.80;87.20
70986;DHT22;58645;43.068;25.610;2022-12-18T09:18:08;8.80;86.20
70986;DHT22;58645;43.068;25.610;2022-12-18T09:20:35;8.80;85.10
70986;DHT22;58645;43.068;25.610;2022-12-18T09:23:02;8.80;84.60
70986;DHT22;58645;43.068;25.610;2022-12-18T09:25:29;8.70;84.30
70986;DHT22;58645;43.068;25.610;2022-12-18T09:27:59;8.70;85.00
70986;DHT22;58645;43.068;25.610;2022-12-18T09:30:26;8.70;83.40
70986;DHT22;58645;43.068;25.610;2022-12-18T09:32:52;8.60;81.50
70986;DHT22;58645;43.068;25.610;2022-12-18T09:35:17;8.70;82.30
70986;DHT22;58645;43.068;25.610;2022-12-18T09:37:43;8.60;81.20
70986;DHT22;58645;43.068;25.610;2022-12-18T09:40:18;8.70;81.20
70986;DHT22;58645;43.068;25.610;2022-12-18T09:43:09;8.70;80.30
70986;DHT22;58645;43.068;25.610;2022-12-18T09:45:44;8.70;79.40
70986;DHT22;58645;43.068;25.610;2022-12-18T09:48:23;8.80;79.20
70986;DHT22;58645;43.068;25.610;2022-12-18T09:50:51;8.80;79.30
70986;DHT22;58645;43.068;25.610;2022-12-18T09:53:28;8.80;78.70
70986;DHT22;58645;43.068;25.610;2022-12-18T09:55:56;8.90;79.40
70986;DHT22;58645;43.068;25.610;2022-12-18T09:58:35;9.00;80.50
70986;DHT22;58645;43.068;25.610;2022-12-18T10:01:21;8.90;79.10
70986;DHT22;58645;43.068;25.610;2022-12-18T10:03:48;9.00;80.20
70986;DHT22;58645;43.068;25.610;2022-12-18T10:06:21;9.00;77.60
70986;DHT22;58645;43.068;25.610;2022-12-18T10:09:02;9.00;76.70
70986;DHT22;58645;43.068;25.610;2022-12-18T10:11:34;9.00;76.70
70986;DHT22;58645;43.068;25.610;2022-12-18T10:16:57;9.30;76.80
70986;DHT22;58645;43.068;25.610;2022-12-18T10:22:35;9.50;75.50
70986;DHT22;58645;43.068;25.610;2022-12-18T10:25:27;9.60;76.30
70986;DHT22;58645;43.068;25.610;2022-12-18T10:28:00;9.60;75.60
70986;DHT22;58645;43.068;25.610;2022-12-18T10:30:32;9.70;75.30
70986;DHT22;58645;43.068;25.610;2022-12-18T10:33:01;9.90;77.20
70986;DHT22;58645;43.068;25.610;2022-12-18T10:35:27;9.90;74.40
70986;DHT22;58645;43.068;25.610;2022-12-18T10:40:56;9.90;74.00
70986;DHT22;58645;43.068;25.610;2022-12-18T10:43:28;9.80;74.60
70986;DHT22;58645;43.068;25.610;2022-12-18T10:48:56;9.70;75.10
70986;DHT22;58645;43.068;25.610;2022-12-18T10:51:25;9.70;74.80
70986;DHT22;58645;43.068;25.610;2022-12-18T10:54:01;9.80;74.10
70986;DHT22;58645;43.068;25.610;2022-12-18T10:56:29;9.80;73.80
70986;DHT22;58645;43.068;25.610;2022-12-18T10:59:06;9.80;74.80
70986;DHT22;58645;43.068;25.610;2022-12-18T11:04:17;9.70;74.50
70986;DHT22;58645;43.068;25.610;2022-12-18T11:07:01;9.80;75.10
70986;DHT22;58645;43.068;25.610;2022-12-18T11:09:30;9.70;73.90
70986;DHT22;58645;43.068;25.610;2022-12-18T11:11:59;9.70;74.30
70986;DHT22;58645;43.068;25.610;2022-12-18T11:14:29;9.90;75.20
70986;DHT22;58645;43.068;25.610;2022-12-18T11:16:57;9.90;73.60
70986;DHT22;58645;43.068;25.610;2022-12-18T11:21:56;10.30;72.70
70986;DHT22;58645;43.068;25.610;2022-12-18T11:24:34;10.50;71.40
70986;DHT22;58645;43.068;25.610;2022-12-18T11:27:20;10.60;70.80
70986;DHT22;58645;43.068;25.610;2022-12-18T11:29:46;10.70;70.00
70986;DHT22;58645;43.068;25.610;2022-12-18T11:34:44;10.80;69.00
70986;DHT22;58645;43.068;25.610;2022-12-18T11:37:13;10.70;69.00
70986;DHT22;58645;43.068;25.610;2022-12-18T11:39:45;10.50;68.50
70986;DHT22;58645;43.068;25.610;2022-12-18T11:42:22;10.40;69.60
70986;DHT22;58645;43.068;25.610;2022-12-18T11:44:59;10.30;70.10
70986;DHT22;58645;43.068;25.610;2022-12-18T11:48:03;10.00;70.40
70986;DHT22;58645;43.068;25.610;2022-12-18T11:50:43;10.10;70.80
70986;DHT22;58645;43.068;25.610;2022-12-18T11:53:12;9.90;69.80
70986;DHT22;58645;43.068;25.610;2022-12-18T11:58:44;9.60;69.80
70986;DHT22;58645;43.068;25.610;2022-12-18T12:01:22;9.60;68.70
70986;DHT22;58645;43.068;25.610;2022-12-18T12:04:10;9.70;70.50
70986;DHT22;58645;43.068;25.610;2022-12-18T12:09:46;9.40;71.50
70986;DHT22;58645;43.068;25.610;2022-12-18T12:12:26;9.30;72.40
70986;DHT22;58645;43.068;25.610;2022-12-18T12:20:45;8.80;73.10
70986;DHT22;58645;43.068;25.610;2022-12-18T12:34:34;8.40;75.40
70986;DHT22;58645;43.068;25.610;2022-12-18T12:40:12;8.10;75.80
70986;DHT22;58645;43.068;25.610;2022-12-18T12:42:43;8.10;76.30
70986;DHT22;58645;43.068;25.610;2022-12-18T12:45:40;8.10;76.90
70986;DHT22;58645;43.068;25.610;2022-12-18T12:48:15;8.10;77.40
70986;DHT22;58645;43.068;25.610;2022-12-18T12:50:42;8.10;77.60
70986;DHT22;58645;43.068;25.610;2022-12-18T12:53:12;8.00;76.60
70986;DHT22;58645;43.068;25.610;2022-12-18T12:55:40;8.10;77.10
70986;DHT22;58645;43.068;25.610;2022-12-18T13:00:46;8.00;76.50
70986;DHT22;58645;43.068;25.610;2022-12-18T13:06:00;7.90;76.60
70986;DHT22;58645;43.068;25.610;2022-12-18T13:08:34;8.00;76.50
70986;DHT22;58645;43.068;25.610;2022-12-18T13:11:30;8.00;76.30
70986;DHT22;58645;43.068;25.610;2022-12-18T13:14:36;7.90;76.30
70986;DHT22;58645;43.068;25.610;2022-12-18T13:17:15;7.90;76.20
70986;DHT22;58645;43.068;25.610;2022-12-18T13:19:42;7.80;76.50
70986;DHT22;58645;43.068;25.610;2022-12-18T13:22:36;7.80;76.50
70986;DHT22;58645;43.068;25.610;2022-12-18T13:25:03;7.70;77.00
70986;DHT22;58645;43.068;25.610;2022-12-18T13:28:13;7.60;77.40
70986;DHT22;58645;43.068;25.610;2022-12-18T13:30:43;7.50;77.40
70986;DHT22;58645;43.068;25.610;2022-12-18T13:40:59;7.50;78.60
70986;DHT22;58645;43.068;25.610;2022-12-18T13:43:36;7.50;78.60
70986;DHT22;58645;43.068;25.610;2022-12-18T13:51:31;7.20;78.90
70986;DHT22;58645;43.068;25.610;2022-12-18T13:56:49;7.20;79.70
70986;DHT22;58645;43.068;25.610;2022-12-18T14:01:50;7.20;80.20
70986;DHT22;58645;43.068;25.610;2022-12-18T14:04:35;7.10;80.50
70986;DHT22;58645;43.068;25.610;2022-12-18T14:07:26;7.10;80.80
70986;DHT22;58645;43.068;25.610;2022-12-18T14:09:58;7.10;81.10
70986;DHT22;58645;43.068;25.610;2022-12-18T14:12:32;7.00;81.20
70986;DHT22;58645;43.068;25.610;2022-12-18T14:17:46;7.00;81.70
70986;DHT22;58645;43.068;25.610;2022-12-18T14:20:13;7.00;81.80
70986;DHT22;58645;43.068;25.610;2022-12-18T14:22:43;7.00;82.60
70986;DHT22;58645;43.068;25.610;2022-12-18T14:27:42;7.00;82.50
70986;DHT22;58645;43.068;25.610;2022-12-18T14:35:39;6.90;83.30
70986;DHT22;58645;43.068;25.610;2022-12-18T14:40:47;6.80;83.00
70986;DHT22;58645;43.068;25.610;2022-12-18T14:43:20;6.80;83.40
70986;DHT22;58645;43.068;25.610;2022-12-18T14:45:47;6.80;84.50
70986;DHT22;58645;43.068;25.610;2022-12-18T14:48:42;6.90;85.00
70986;DHT22;58645;43.068;25.610;2022-12-18T14:51:21;6.80;83.90
70986;DHT22;58645;43.068;25.610;2022-12-18T14:53:52;6.80;83.70
70986;DHT22;58645;43.068;25.610;2022-12-18T14:59:14;6.90;84.30
70986;DHT22;58645;43.068;25.610;2022-12-18T15:04:39;6.80;84.10
70986;DHT22;58645;43.068;25.610;2022-12-18T15:07:20;6.80;83.70
70986;DHT22;58645;43.068;25.610;2022-12-18T15:10:13;6.80;85.10
70986;DHT22;58645;43.068;25.610;2022-12-18T15:17:59;6.70;84.00
70986;DHT22;58645;43.068;25.610;2022-12-18T15:20:27;6.70;84.20
70986;DHT22;58645;43.068;25.610;2022-12-18T15:22:53;6.70;84.40
70986;DHT22;58645;43.068;25.610;2022-12-18T15:25:37;6.70;84.50
70986;DHT22;58645;43.068;25.610;2022-12-18T15:28:17;6.60;85.00
70986;DHT22;58645;43.068;25.610;2022-12-18T15:31:01;6.60;85.10
70986;DHT22;58645;43.068;25.610;2022-12-18T15:33:34;6.60;86.10
70986;DHT22;58645;43.068;25.610;2022-12-18T15:36:05;6.60;86.10
70986;DHT22;58645;43.068;25.610;2022-12-18T15:38:33;6.60;86.80
70986;DHT22;58645;43.068;25.610;2022-12-18T15:40:59;6.50;87.70
70986;DHT22;58645;43.068;25.610;2022-12-18T15:43:26;6.50;87.70
70986;DHT22;58645;43.068;25.610;2022-12-18T15:48:27;6.40;88.50
70986;DHT22;58645;43.068;25.610;2022-12-18T15:50:55;6.40;88.60
70986;DHT22;58645;43.068;25.610;2022-12-18T15:53:24;6.40;88.60
70986;DHT22;58645;43.068;25.610;2022-12-18T15:55:51;6.40;89.10
70986;DHT22;58645;43.068;25.610;2022-12-18T15:58:35;6.30;89.60
70986;DHT22;58645;43.068;25.610;2022-12-18T16:01:01;6.30;90.10
70986;DHT22;58645;43.068;25.610;2022-12-18T16:03:27;6.30;90.20
70986;DHT22;58645;43.068;25.610;2022-12-18T16:05:53;6.20;90.40
70986;DHT22;58645;43.068;25.610;2022-12-18T16:08:18;6.20;91.40
70986;DHT22;58645;43.068;25.610;2022-12-18T16:10:44;6.20;91.30
70986;DHT22;58645;43.068;25.610;2022-12-18T16:13:11;6.20;91.10
70986;DHT22;58645;43.068;25.610;2022-12-18T16:15:37;6.30;91.50
70986;DHT22;58645;43.068;25.610;2022-12-18T16:18:03;6.20;91.10
70986;DHT22;58645;43.068;25.610;2022-12-18T16:20:29;6.20;91.00
70986;DHT22;58645;43.068;25.610;2022-12-18T16:22:55;6.10;91.00
70986;DHT22;58645;43.068;25.610;2022-12-18T16:25:23;6.10;91.60
70986;DHT22;58645;43.068;25.610;2022-12-18T16:27:50;6.10;91.80
70986;DHT22;58645;43.068;25.610;2022-12-18T16:30:21;6.00;91.80
70986;DHT22;58645;43.068;25.610;2022-12-18T16:32:47;6.00;92.00
70986;DHT22;58645;43.068;25.610;2022-12-18T16:35:15;6.00;92.60
70986;DHT22;58645;43.068;25.610;2022-12-18T16:37:42;6.00;92.70
70986;DHT22;58645;43.068;25.610;2022-12-18T16:40:10;6.00;92.60
70986;DHT22;58645;43.068;25.610;2022-12-18T16:42:38;6.00;91.40
70986;DHT22;58645;43.068;25.610;2022-12-18T16:45:05;5.90;91.00
70986;DHT22;58645;43.068;25.610;2022-12-18T16:47:31;5.90;91.00
70986;DHT22;58645;43.068;25.610;2022-12-18T16:49:57;6.00;91.40
70986;DHT22;58645;43.068;25.610;2022-12-18T16:52:23;5.90;91.80
70986;DHT22;58645;43.068;25.610;2022-12-18T16:54:48;5.90;91.90
70986;DHT22;58645;43.068;25.610;2022-12-18T16:57:16;5.90;92.10
70986;DHT22;58645;43.068;25.610;2022-12-18T16:59:43;5.90;92.40
70986;DHT22;58645;43.068;25.610;2022-12-18T17:02:23;5.80;92.10
70986;DHT22;58645;43.068;25.610;2022-12-18T17:04:52;5.80;92.30
70986;DHT22;58645;43.068;25.610;2022-12-18T17:07:17;5.80;92.20
70986;DHT22;58645;43.068;25.610;2022-12-18T17:09:43;5.80;92.40
70986;DHT22;58645;43.068;25.610;2022-12-18T17:12:09;5.70;92.50
70986;DHT22;58645;43.068;25.610;2022-12-18T17:14:35;5.70;92.80
70986;DHT22;58645;43.068;25.610;2022-12-18T17:17:01;5.70;93.10
70986;DHT22;58645;43.068;25.610;2022-12-18T17:19:27;5.70;92.70
70986;DHT22;58645;43.068;25.610;2022-12-18T17:21:54;5.70;92.70
70986;DHT22;58645;43.068;25.610;2022-12-18T17:24:20;5.70;92.90
70986;DHT22;58645;43.068;25.610;2022-12-18T17:26:46;5.60;92.60
70986;DHT22;58645;43.068;25.610;2022-12-18T17:29:17;5.70;92.50
70986;DHT22;58645;43.068;25.610;2022-12-18T17:31:45;5.80;92.70
70986;DHT22;58645;43.068;25.610;2022-12-18T17:34:11;5.70;91.90
70986;DHT22;58645;43.068;25.610;2022-12-18T17:36:37;5.70;91.40
70986;DHT22;58645;43.068;25.610;2022-12-18T17:39:05;5.70;92.90
70986;DHT22;58645;43.068;25.610;2022-12-18T17:41:31;5.80;92.20
70986;DHT22;58645;43.068;25.610;2022-12-18T17:44:00;5.80;91.90
70986;DHT22;58645;43.068;25.610;2022-12-18T17:46:27;5.80;91.30
70986;DHT22;58645;43.068;25.610;2022-12-18T17:49:00;5.70;90.80
70986;DHT22;58645;43.068;25.610;2022-12-18T17:51:28;5.70;90.90
70986;DHT22;58645;43.068;25.610;2022-12-18T17:53:53;5.70;90.80
70986;DHT22;58645;43.068;25.610;2022-12-18T17:56:21;5.70;91.00
70986;DHT22;58645;43.068;25.610;2022-12-18T17:58:49;5.80;92.00